sensor_id;sensor_type;location;lat;lon;timestamp;P1;durP1;ratioP1;P2;durP2;ratioP2
12707;SDS011;6418;50.824;4.718;2023-05-10T00:00:23;34.73;;;16.87;;
12707;SDS011;6418;50.824;4.718;2023-05-10T00:02:50;36.07;;;16.97;;
12707;SDS011;6418;50.824;4.718;2023-05-10T00:05:18;38.03;;;16.73;;
12707;SDS011;6418;50.824;4.718;2023-05-10T00:07:46;33.67;;;17.17;;
12707;SDS011;6418;50.824;4.718;2023-05-10T00:10:13;33.67;;;17.00;;
12707;SDS011;6418;50.824;4.718;2023-05-10T00:12:40;37.27;;;17.87;;
12707;SDS011;6418;50.824;4.718;2023-05-10T00:15:08;30.47;;;17.10;;
12707;SDS011;6418;50.824;4.718;2023-05-10T00:17:35;31.43;;;17.73;;
12707;SDS011;6418;50.824;4.718;2023-05-10T00:20:02;35.13;;;17.50;;
12707;SDS011;6418;50.824;4.718;2023-05-10T00:22:30;30.20;;;16.80;;
12707;SDS011;6418;50.824;4.718;2023-05-10T00:25:01;33.23;;;17.60;;
12707;SDS011;6418;50.824;4.718;2023-05-10T00:27:28;40.50;;;19.30;;
12707;SDS011;6418;50.824;4.718;2023-05-10T00:29:55;31.87;;;18.03;;
12707;SDS011;6418;50.824;4.718;2023-05-10T00:32:22;34.03;;;18.30;;
12707;SDS011;6418;50.824;4.718;2023-05-10T00:34:49;33.53;;;18.53;;
12707;SDS011;6418;50.824;4.718;2023-05-10T00:37:17;35.03;;;18.43;;
12707;SDS011;6418;50.824;4.718;2023-05-10T00:39:43;34.43;;;19.00;;
12707;SDS011;6418;50.824;4.718;2023-05-10T00:42:12;35.97;;;19.73;;
12707;SDS011;6418;50.824;4.718;2023-05-10T00:44:39;33.90;;;19.13;;
12707;SDS011;6418;50.824;4.718;2023-05-10T00:47:06;38.97;;;19.13;;
12707;SDS011;6418;50.824;4.718;2023-05-10T00:49:34;34.70;;;19.17;;
12707;SDS011;6418;50.824;4.718;2023-05-10T00:52:01;36.07;;;20.10;;
12707;SDS011;6418;50.824;4.718;2023-05-10T00:54:29;33.73;;;19.10;;
12707;SDS011;6418;50.824;4.718;2023-05-10T00:56:56;35.17;;;19.77;;
12707;SDS011;6418;50.824;4.718;2023-05-10T00:59:26;37.87;;;18.90;;
12707;SDS011;6418;50.824;4.718;2023-05-10T01:01:53;33.10;;;19.20;;
12707;SDS011;6418;50.824;4.718;2023-05-10T01:04:20;37.83;;;20.10;;
12707;SDS011;6418;50.824;4.718;2023-05-10T01:06:50;36.30;;;19.00;;
12707;SDS011;6418;50.824;4.718;2023-05-10T01:09:18;38.27;;;20.10;;
12707;SDS011;6418;50.824;4.718;2023-05-10T01:11:46;34.17;;;17.77;;
12707;SDS011;6418;50.824;4.718;2023-05-10T01:14:14;40.80;;;19.83;;
12707;SDS011;6418;50.824;4.718;2023-05-10T01:16:45;35.40;;;18.33;;
12707;SDS011;6418;50.824;4.718;2023-05-10T01:19:17;36.70;;;18.87;;
12707;SDS011;6418;50.824;4.718;2023-05-10T01:21:49;34.83;;;18.80;;
12707;SDS011;6418;50.824;4.718;2023-05-10T01:27:46;34.47;;;18.33;;
12707;SDS011;6418;50.824;4.718;2023-05-10T01:33:24;32.13;;;18.40;;
12707;SDS011;6418;50.824;4.718;2023-05-10T01:35:58;41.20;;;18.70;;
12707;SDS011;6418;50.824;4.718;2023-05-10T01:38:33;44.33;;;19.37;;
12707;SDS011;6418;50.824;4.718;2023-05-10T01:41:16;38.87;;;19.23;;
12707;SDS011;6418;50.824;4.718;2023-05-10T01:43:48;42.50;;;19.20;;
12707;SDS011;6418;50.824;4.718;2023-05-10T01:46:24;42.20;;;19.83;;
12707;SDS011;6418;50.824;4.718;2023-05-10T01:48:58;40.00;;;19.27;;
12707;SDS011;6418;50.824;4.718;2023-05-10T01:51:31;36.77;;;19.67;;
12707;SDS011;6418;50.824;4.718;2023-05-10T01:54:05;40.20;;;20.40;;
12707;SDS011;6418;50.824;4.718;2023-05-10T01:56:35;37.97;;;20.37;;
12707;SDS011;6418;50.824;4.718;2023-05-10T01:59:04;38.20;;;20.20;;
12707;SDS011;6418;50.824;4.718;2023-05-10T02:01:37;37.07;;;19.57;;
12707;SDS011;6418;50.824;4.718;2023-05-10T02:04:06;40.97;;;21.10;;
12707;SDS011;6418;50.824;4.718;2023-05-10T02:06:35;39.70;;;21.03;;
12707;SDS011;6418;50.824;4.718;2023-05-10T02:09:04;46.33;;;22.80;;
12707;SDS011;6418;50.824;4.718;2023-05-10T02:11:33;44.17;;;21.57;;
12707;SDS011;6418;50.824;4.718;2023-05-10T02:14:00;41.97;;;21.97;;
12707;SDS011;6418;50.824;4.718;2023-05-10T02:16:28;43.10;;;22.17;;
12707;SDS011;6418;50.824;4.718;2023-05-10T02:18:56;43.73;;;21.03;;
12707;SDS011;6418;50.824;4.718;2023-05-10T02:21:27;44.40;;;22.03;;
12707;SDS011;6418;50.824;4.718;2023-05-10T02:23:55;40.27;;;21.80;;
12707;SDS011;6418;50.824;4.718;2023-05-10T02:26:27;48.37;;;22.70;;
12707;SDS011;6418;50.824;4.718;2023-05-10T02:28:57;45.30;;;22.13;;
12707;SDS011;6418;50.824;4.718;2023-05-10T02:31:25;45.07;;;22.50;;
12707;SDS011;6418;50.824;4.718;2023-05-10T02:33:52;44.23;;;23.23;;
12707;SDS011;6418;50.824;4.718;2023-05-10T02:36:20;46.43;;;22.80;;
12707;SDS011;6418;50.824;4.718;2023-05-10T02:38:50;44.90;;;23.10;;
12707;SDS011;6418;50.824;4.718;2023-05-10T02:41:19;48.13;;;23.20;;
12707;SDS011;6418;50.824;4.718;2023-05-10T02:43:48;53.33;;;22.90;;
12707;SDS011;6418;50.824;4.718;2023-05-10T02:46:17;42.43;;;22.07;;
12707;SDS011;6418;50.824;4.718;2023-05-10T02:48:44;42.53;;;23.90;;
12707;SDS011;6418;50.824;4.718;2023-05-10T02:51:12;41.30;;;23.93;;
12707;SDS011;6418;50.824;4.718;2023-05-10T02:53:43;49.90;;;23.77;;
12707;SDS011;6418;50.824;4.718;2023-05-10T02:56:14;43.70;;;23.57;;
12707;SDS011;6418;50.824;4.718;2023-05-10T02:58:46;47.60;;;24.17;;
12707;SDS011;6418;50.824;4.718;2023-05-10T03:01:13;45.47;;;23.47;;
12707;SDS011;6418;50.824;4.718;2023-05-10T03:03:40;46.13;;;23.43;;
12707;SDS011;6418;50.824;4.718;2023-05-10T03:06:08;44.87;;;23.13;;
12707;SDS011;6418;50.824;4.718;2023-05-10T03:08:34;45.97;;;23.57;;
12707;SDS011;6418;50.824;4.718;2023-05-10T03:11:08;44.30;;;23.40;;
12707;SDS011;6418;50.824;4.718;2023-05-10T03:13:49;43.37;;;22.83;;
12707;SDS011;6418;50.824;4.718;2023-05-10T03:16:27;43.37;;;23.27;;
12707;SDS011;6418;50.824;4.718;2023-05-10T03:19:04;42.57;;;22.57;;
12707;SDS011;6418;50.824;4.718;2023-05-10T03:21:38;43.23;;;23.23;;
12707;SDS011;6418;50.824;4.718;2023-05-10T03:24:11;42.00;;;23.53;;
12707;SDS011;6418;50.824;4.718;2023-05-10T03:26:41;42.13;;;23.07;;
12707;SDS011;6418;50.824;4.718;2023-05-10T03:29:11;41.77;;;22.47;;
12707;SDS011;6418;50.824;4.718;2023-05-10T03:31:40;42.50;;;22.67;;
12707;SDS011;6418;50.824;4.718;2023-05-10T03:34:07;42.93;;;22.70;;
12707;SDS011;6418;50.824;4.718;2023-05-10T03:36:35;39.47;;;21.50;;
12707;SDS011;6418;50.824;4.718;2023-05-10T03:39:02;42.33;;;21.80;;
12707;SDS011;6418;50.824;4.718;2023-05-10T03:41:29;40.57;;;21.67;;
12707;SDS011;6418;50.824;4.718;2023-05-10T03:43:58;37.23;;;20.53;;
12707;SDS011;6418;50.824;4.718;2023-05-10T03:46:25;40.00;;;21.40;;
12707;SDS011;6418;50.824;4.718;2023-05-10T03:48:52;40.07;;;21.60;;
12707;SDS011;6418;50.824;4.718;2023-05-10T03:51:19;40.50;;;21.07;;
12707;SDS011;6418;50.824;4.718;2023-05-10T03:53:47;37.70;;;20.90;;
12707;SDS011;6418;50.824;4.718;2023-05-10T03:56:14;40.60;;;21.87;;
12707;SDS011;6418;50.824;4.718;2023-05-10T03:58:41;44.30;;;23.17;;
12707;SDS011;6418;50.824;4.718;2023-05-10T04:01:09;43.23;;;22.50;;
12707;SDS011;6418;50.824;4.718;2023-05-10T04:03:36;44.27;;;22.57;;
12707;SDS011;6418;50.824;4.718;2023-05-10T04:06:03;42.33;;;22.50;;
12707;SDS011;6418;50.824;4.718;2023-05-10T04:08:33;41.47;;;22.03;;
12707;SDS011;6418;50.824;4.718;2023-05-10T04:11:06;45.27;;;21.80;;
12707;SDS011;6418;50.824;4.718;2023-05-10T04:13:33;44.57;;;21.20;;
12707;SDS011;6418;50.824;4.718;2023-05-10T04:16:00;38.50;;;19.97;;
12707;SDS011;6418;50.824;4.718;2023-05-10T04:18:29;43.17;;;20.77;;
12707;SDS011;6418;50.824;4.718;2023-05-10T04:20:56;47.83;;;22.03;;
12707;SDS011;6418;50.824;4.718;2023-05-10T04:23:23;46.17;;;21.03;;
12707;SDS011;6418;50.824;4.718;2023-05-10T04:25:50;45.77;;;21.43;;
12707;SDS011;6418;50.824;4.718;2023-05-10T04:28:17;50.40;;;22.27;;
12707;SDS011;6418;50.824;4.718;2023-05-10T04:30:44;48.57;;;21.70;;
12707;SDS011;6418;50.824;4.718;2023-05-10T04:33:11;49.37;;;22.80;;
12707;SDS011;6418;50.824;4.718;2023-05-10T04:35:40;41.17;;;21.00;;
12707;SDS011;6418;50.824;4.718;2023-05-10T04:38:07;40.10;;;20.50;;
12707;SDS011;6418;50.824;4.718;2023-05-10T04:40:34;40.87;;;21.40;;
12707;SDS011;6418;50.824;4.718;2023-05-10T04:43:01;43.20;;;21.47;;
12707;SDS011;6418;50.824;4.718;2023-05-10T04:45:28;43.33;;;20.67;;
12707;SDS011;6418;50.824;4.718;2023-05-10T04:47:55;45.97;;;21.27;;
12707;SDS011;6418;50.824;4.718;2023-05-10T04:50:22;47.50;;;22.23;;
12707;SDS011;6418;50.824;4.718;2023-05-10T04:52:51;49.17;;;22.37;;
12707;SDS011;6418;50.824;4.718;2023-05-10T04:55:18;57.93;;;24.50;;
12707;SDS011;6418;50.824;4.718;2023-05-10T04:57:45;54.23;;;24.70;;
12707;SDS011;6418;50.824;4.718;2023-05-10T05:00:12;58.10;;;24.03;;
12707;SDS011;6418;50.824;4.718;2023-05-10T05:02:41;61.63;;;27.40;;
12707;SDS011;6418;50.824;4.718;2023-05-10T05:05:09;61.23;;;27.97;;
12707;SDS011;6418;50.824;4.718;2023-05-10T05:07:36;65.27;;;27.37;;
12707;SDS011;6418;50.824;4.718;2023-05-10T05:10:06;61.97;;;26.77;;
12707;SDS011;6418;50.824;4.718;2023-05-10T05:12:34;73.03;;;28.47;;
12707;SDS011;6418;50.824;4.718;2023-05-10T05:15:01;74.20;;;28.90;;
12707;SDS011;6418;50.824;4.718;2023-05-10T05:17:29;69.33;;;30.17;;
12707;SDS011;6418;50.824;4.718;2023-05-10T05:19:56;78.63;;;30.97;;
12707;SDS011;6418;50.824;4.718;2023-05-10T05:22:23;73.00;;;33.37;;
12707;SDS011;6418;50.824;4.718;2023-05-10T05:24:52;72.10;;;30.47;;
12707;SDS011;6418;50.824;4.718;2023-05-10T05:27:21;76.77;;;30.83;;
12707;SDS011;6418;50.824;4.718;2023-05-10T05:29:49;78.83;;;30.53;;
12707;SDS011;6418;50.824;4.718;2023-05-10T05:32:16;80.67;;;32.47;;
12707;SDS011;6418;50.824;4.718;2023-05-10T05:34:44;71.43;;;30.33;;
12707;SDS011;6418;50.824;4.718;2023-05-10T05:37:12;78.97;;;31.07;;
12707;SDS011;6418;50.824;4.718;2023-05-10T05:39:40;77.77;;;32.47;;
12707;SDS011;6418;50.824;4.718;2023-05-10T05:42:07;87.20;;;33.93;;
12707;SDS011;6418;50.824;4.718;2023-05-10T05:44:36;80.23;;;33.37;;
12707;SDS011;6418;50.824;4.718;2023-05-10T05:47:04;90.50;;;34.20;;
12707;SDS011;6418;50.824;4.718;2023-05-10T05:49:31;84.70;;;32.97;;
12707;SDS011;6418;50.824;4.718;2023-05-10T05:51:58;90.77;;;33.93;;
12707;SDS011;6418;50.824;4.718;2023-05-10T05:54:26;90.87;;;33.70;;
12707;SDS011;6418;50.824;4.718;2023-05-10T05:56:53;82.03;;;33.83;;
12707;SDS011;6418;50.824;4.718;2023-05-10T05:59:21;74.73;;;32.77;;
12707;SDS011;6418;50.824;4.718;2023-05-10T06:01:50;84.83;;;33.90;;
12707;SDS011;6418;50.824;4.718;2023-05-10T06:04:17;88.37;;;33.90;;
12707;SDS011;6418;50.824;4.718;2023-05-10T06:06:45;86.97;;;33.77;;
12707;SDS011;6418;50.824;4.718;2023-05-10T06:09:12;86.67;;;34.87;;
12707;SDS011;6418;50.824;4.718;2023-05-10T06:11:39;84.77;;;34.70;;
12707;SDS011;6418;50.824;4.718;2023-05-10T06:14:06;77.10;;;34.13;;
12707;SDS011;6418;50.824;4.718;2023-05-10T06:16:33;84.97;;;34.70;;
12707;SDS011;6418;50.824;4.718;2023-05-10T06:19:02;75.53;;;32.83;;
12707;SDS011;6418;50.824;4.718;2023-05-10T06:21:29;85.00;;;33.07;;
12707;SDS011;6418;50.824;4.718;2023-05-10T06:23:56;81.87;;;33.30;;
12707;SDS011;6418;50.824;4.718;2023-05-10T06:26:24;74.27;;;29.00;;
12707;SDS011;6418;50.824;4.718;2023-05-10T06:28:51;44.17;;;20.07;;
12707;SDS011;6418;50.824;4.718;2023-05-10T06:31:18;31.93;;;14.03;;
12707;SDS011;6418;50.824;4.718;2023-05-10T06:33:45;22.07;;;11.63;;
12707;SDS011;6418;50.824;4.718;2023-05-10T06:36:13;18.70;;;8.93;;
12707;SDS011;6418;50.824;4.718;2023-05-10T06:38:40;16.80;;;7.73;;
12707;SDS011;6418;50.824;4.718;2023-05-10T06:41:07;13.40;;;6.10;;
12707;SDS011;6418;50.824;4.718;2023-05-10T06:43:34;12.93;;;6.23;;
12707;SDS011;6418;50.824;4.718;2023-05-10T06:46:04;11.90;;;5.63;;
12707;SDS011;6418;50.824;4.718;2023-05-10T06:48:32;11.17;;;5.40;;
12707;SDS011;6418;50.824;4.718;2023-05-10T06:50:59;11.10;;;5.43;;
12707;SDS011;6418;50.824;4.718;2023-05-10T06:53:28;11.13;;;5.00;;
12707;SDS011;6418;50.824;4.718;2023-05-10T06:55:55;10.07;;;5.40;;
12707;SDS011;6418;50.824;4.718;2023-05-10T06:58:22;7.90;;;4.63;;
12707;SDS011;6418;50.824;4.718;2023-05-10T07:00:49;9.37;;;4.83;;
12707;SDS011;6418;50.824;4.718;2023-05-10T07:03:16;8.57;;;4.63;;
12707;SDS011;6418;50.824;4.718;2023-05-10T07:05:44;10.60;;;5.20;;
12707;SDS011;6418;50.824;4.718;2023-05-10T07:08:10;11.00;;;4.70;;
12707;SDS011;6418;50.824;4.718;2023-05-10T07:10:39;12.30;;;4.80;;
12707;SDS011;6418;50.824;4.718;2023-05-10T07:13:06;9.93;;;5.10;;
12707;SDS011;6418;50.824;4.718;2023-05-10T07:15:34;11.43;;;5.63;;
12707;SDS011;6418;50.824;4.718;2023-05-10T07:18:01;12.47;;;5.80;;
12707;SDS011;6418;50.824;4.718;2023-05-10T07:20:30;12.77;;;5.40;;
12707;SDS011;6418;50.824;4.718;2023-05-10T07:22:57;13.83;;;6.10;;
12707;SDS011;6418;50.824;4.718;2023-05-10T07:25:24;12.50;;;6.17;;
12707;SDS011;6418;50.824;4.718;2023-05-10T07:27:53;11.00;;;5.63;;
12707;SDS011;6418;50.824;4.718;2023-05-10T07:30:20;12.50;;;6.70;;
12707;SDS011;6418;50.824;4.718;2023-05-10T07:32:50;13.27;;;6.57;;
12707;SDS011;6418;50.824;4.718;2023-05-10T07:35:17;12.97;;;6.10;;
12707;SDS011;6418;50.824;4.718;2023-05-10T07:37:44;14.03;;;6.70;;
12707;SDS011;6418;50.824;4.718;2023-05-10T07:40:11;13.80;;;6.40;;
12707;SDS011;6418;50.824;4.718;2023-05-10T07:42:39;12.07;;;6.40;;
12707;SDS011;6418;50.824;4.718;2023-05-10T07:45:10;12.67;;;6.50;;
12707;SDS011;6418;50.824;4.718;2023-05-10T07:47:37;11.70;;;6.40;;
12707;SDS011;6418;50.824;4.718;2023-05-10T07:50:05;12.70;;;6.50;;
12707;SDS011;6418;50.824;4.718;2023-05-10T07:52:33;11.37;;;5.93;;
12707;SDS011;6418;50.824;4.718;2023-05-10T07:55:00;14.63;;;7.83;;
12707;SDS011;6418;50.824;4.718;2023-05-10T07:57:29;15.00;;;8.97;;
12707;SDS011;6418;50.824;4.718;2023-05-10T07:59:56;15.27;;;8.07;;
12707;SDS011;6418;50.824;4.718;2023-05-10T08:02:28;14.57;;;7.70;;
12707;SDS011;6418;50.824;4.718;2023-05-10T08:04:55;17.67;;;8.30;;
12707;SDS011;6418;50.824;4.718;2023-05-10T08:07:24;17.00;;;8.90;;
12707;SDS011;6418;50.824;4.718;2023-05-10T08:09:51;16.73;;;8.63;;
12707;SDS011;6418;50.824;4.718;2023-05-10T08:12:18;16.30;;;8.60;;
12707;SDS011;6418;50.824;4.718;2023-05-10T08:14:45;17.33;;;9.20;;
12707;SDS011;6418;50.824;4.718;2023-05-10T08:17:12;19.10;;;9.17;;
12707;SDS011;6418;50.824;4.718;2023-05-10T08:19:41;19.40;;;9.80;;
12707;SDS011;6418;50.824;4.718;2023-05-10T08:22:08;20.23;;;10.20;;
12707;SDS011;6418;50.824;4.718;2023-05-10T08:24:35;22.57;;;12.43;;
12707;SDS011;6418;50.824;4.718;2023-05-10T08:27:04;21.77;;;12.37;;
12707;SDS011;6418;50.824;4.718;2023-05-10T08:29:32;32.97;;;19.03;;
12707;SDS011;6418;50.824;4.718;2023-05-10T08:31:59;20.73;;;11.87;;
12707;SDS011;6418;50.824;4.718;2023-05-10T08:34:26;28.77;;;19.03;;
12707;SDS011;6418;50.824;4.718;2023-05-10T08:36:54;20.43;;;10.63;;
12707;SDS011;6418;50.824;4.718;2023-05-10T08:39:21;20.07;;;11.53;;
12707;SDS011;6418;50.824;4.718;2023-05-10T08:41:49;23.70;;;11.00;;
12707;SDS011;6418;50.824;4.718;2023-05-10T08:44:17;19.53;;;11.03;;
12707;SDS011;6418;50.824;4.718;2023-05-10T08:46:45;20.47;;;11.77;;
12707;SDS011;6418;50.824;4.718;2023-05-10T08:49:13;21.77;;;11.43;;
12707;SDS011;6418;50.824;4.718;2023-05-10T08:51:44;18.80;;;10.23;;
12707;SDS011;6418;50.824;4.718;2023-05-10T08:54:19;20.27;;;11.70;;
12707;SDS011;6418;50.824;4.718;2023-05-10T08:56:47;19.83;;;10.87;;
12707;SDS011;6418;50.824;4.718;2023-05-10T08:59:14;16.67;;;9.63;;
12707;SDS011;6418;50.824;4.718;2023-05-10T09:01:41;18.07;;;10.67;;
12707;SDS011;6418;50.824;4.718;2023-05-10T09:04:11;18.47;;;9.47;;
12707;SDS011;6418;50.824;4.718;2023-05-10T09:06:38;17.10;;;8.73;;
12707;SDS011;6418;50.824;4.718;2023-05-10T09:09:06;18.00;;;9.57;;
12707;SDS011;6418;50.824;4.718;2023-05-10T09:11:34;19.10;;;9.33;;
12707;SDS011;6418;50.824;4.718;2023-05-10T09:14:01;17.57;;;8.93;;
12707;SDS011;6418;50.824;4.718;2023-05-10T09:16:28;19.83;;;9.03;;
12707;SDS011;6418;50.824;4.718;2023-05-10T09:18:55;21.97;;;9.67;;
12707;SDS011;6418;50.824;4.718;2023-05-10T09:21:24;22.07;;;9.70;;
12707;SDS011;6418;50.824;4.718;2023-05-10T09:23:52;18.67;;;8.67;;
12707;SDS011;6418;50.824;4.718;2023-05-10T09:26:21;16.40;;;8.10;;
12707;SDS011;6418;50.824;4.718;2023-05-10T09:28:54;19.90;;;8.43;;
12707;SDS011;6418;50.824;4.718;2023-05-10T09:31:22;16.43;;;8.00;;
12707;SDS011;6418;50.824;4.718;2023-05-10T09:33:51;17.00;;;8.20;;
12707;SDS011;6418;50.824;4.718;2023-05-10T09:36:18;15.67;;;7.93;;
12707;SDS011;6418;50.824;4.718;2023-05-10T09:38:45;16.60;;;9.00;;
12707;SDS011;6418;50.824;4.718;2023-05-10T09:41:17;16.77;;;7.37;;
12707;SDS011;6418;50.824;4.718;2023-05-10T09:43:45;14.73;;;7.73;;
12707;SDS011;6418;50.824;4.718;2023-05-10T09:46:16;14.33;;;7.37;;
12707;SDS011;6418;50.824;4.718;2023-05-10T09:48:44;14.03;;;6.80;;
12707;SDS011;6418;50.824;4.718;2023-05-10T09:51:18;13.03;;;6.67;;
12707;SDS011;6418;50.824;4.718;2023-05-10T09:53:46;14.00;;;6.80;;
12707;SDS011;6418;50.824;4.718;2023-05-10T09:56:13;17.90;;;7.00;;
12707;SDS011;6418;50.824;4.718;2023-05-10T09:59:01;13.87;;;6.60;;
12707;SDS011;6418;50.824;4.718;2023-05-10T10:01:30;11.57;;;6.10;;
12707;SDS011;6418;50.824;4.718;2023-05-10T10:04:00;12.40;;;6.47;;
12707;SDS011;6418;50.824;4.718;2023-05-10T10:06:34;14.53;;;7.77;;
12707;SDS011;6418;50.824;4.718;2023-05-10T10:09:03;12.67;;;6.53;;
12707;SDS011;6418;50.824;4.718;2023-05-10T10:11:31;11.77;;;6.20;;
12707;SDS011;6418;50.824;4.718;2023-05-10T10:13:58;14.10;;;7.10;;
12707;SDS011;6418;50.824;4.718;2023-05-10T10:16:26;13.50;;;7.10;;
12707;SDS011;6418;50.824;4.718;2023-05-10T10:18:56;15.00;;;10.30;;
12707;SDS011;6418;50.824;4.718;2023-05-10T10:21:23;14.33;;;9.30;;
12707;SDS011;6418;50.824;4.718;2023-05-10T10:23:50;13.03;;;7.20;;
12707;SDS011;6418;50.824;4.718;2023-05-10T10:26:18;12.33;;;6.80;;
12707;SDS011;6418;50.824;4.718;2023-05-10T10:28:47;14.60;;;7.63;;
12707;SDS011;6418;50.824;4.718;2023-05-10T10:31:23;14.13;;;8.13;;
12707;SDS011;6418;50.824;4.718;2023-05-10T10:34:03;13.53;;;7.67;;
12707;SDS011;6418;50.824;4.718;2023-05-10T10:36:33;13.07;;;6.60;;
12707;SDS011;6418;50.824;4.718;2023-05-10T10:39:08;12.63;;;6.77;;
12707;SDS011;6418;50.824;4.718;2023-05-10T10:41:37;12.50;;;6.17;;
12707;SDS011;6418;50.824;4.718;2023-05-10T10:44:25;16.20;;;6.80;;
12707;SDS011;6418;50.824;4.718;2023-05-10T10:46:59;12.83;;;6.77;;
12707;SDS011;6418;50.824;4.718;2023-05-10T10:49:37;11.60;;;5.90;;
12707;SDS011;6418;50.824;4.718;2023-05-10T10:55:03;11.20;;;5.60;;
12707;SDS011;6418;50.824;4.718;2023-05-10T10:57:35;9.43;;;5.23;;
12707;SDS011;6418;50.824;4.718;2023-05-10T11:00:23;9.77;;;5.30;;
12707;SDS011;6418;50.824;4.718;2023-05-10T11:02:56;9.70;;;5.10;;
12707;SDS011;6418;50.824;4.718;2023-05-10T11:08:12;10.37;;;5.60;;
12707;SDS011;6418;50.824;4.718;2023-05-10T11:10:51;10.87;;;5.60;;
12707;SDS011;6418;50.824;4.718;2023-05-10T11:13:29;10.07;;;5.53;;
12707;SDS011;6418;50.824;4.718;2023-05-10T11:15:57;10.37;;;5.50;;
12707;SDS011;6418;50.824;4.718;2023-05-10T11:18:26;11.67;;;5.50;;
12707;SDS011;6418;50.824;4.718;2023-05-10T11:20:56;9.80;;;5.50;;
12707;SDS011;6418;50.824;4.718;2023-05-10T11:23:29;9.63;;;5.47;;
12707;SDS011;6418;50.824;4.718;2023-05-10T11:25:58;7.80;;;5.00;;
12707;SDS011;6418;50.824;4.718;2023-05-10T11:28:26;9.90;;;5.33;;
12707;SDS011;6418;50.824;4.718;2023-05-10T11:30:53;7.63;;;5.03;;
12707;SDS011;6418;50.824;4.718;2023-05-10T11:33:21;7.73;;;5.20;;
12707;SDS011;6418;50.824;4.718;2023-05-10T11:35:48;6.90;;;4.90;;
12707;SDS011;6418;50.824;4.718;2023-05-10T11:38:17;6.23;;;4.70;;
12707;SDS011;6418;50.824;4.718;2023-05-10T11:40:44;7.40;;;4.77;;
12707;SDS011;6418;50.824;4.718;2023-05-10T11:43:11;7.00;;;4.60;;
12707;SDS011;6418;50.824;4.718;2023-05-10T11:45:39;7.73;;;4.77;;
12707;SDS011;6418;50.824;4.718;2023-05-10T11:48:07;7.93;;;4.60;;
12707;SDS011;6418;50.824;4.718;2023-05-10T11:50:34;6.07;;;4.30;;
12707;SDS011;6418;50.824;4.718;2023-05-10T11:53:01;6.53;;;4.20;;
12707;SDS011;6418;50.824;4.718;2023-05-10T11:55:30;5.53;;;4.20;;
12707;SDS011;6418;50.824;4.718;2023-05-10T11:58:00;6.70;;;4.17;;
12707;SDS011;6418;50.824;4.718;2023-05-10T12:00:29;7.23;;;4.30;;
12707;SDS011;6418;50.824;4.718;2023-05-10T12:02:56;7.50;;;4.20;;
12707;SDS011;6418;50.824;4.718;2023-05-10T12:05:23;5.77;;;4.30;;
12707;SDS011;6418;50.824;4.718;2023-05-10T12:07:51;5.37;;;4.33;;
12707;SDS011;6418;50.824;4.718;2023-05-10T12:10:18;5.03;;;3.90;;
12707;SDS011;6418;50.824;4.718;2023-05-10T12:12:54;5.23;;;4.33;;
12707;SDS011;6418;50.824;4.718;2023-05-10T12:15:23;6.63;;;4.60;;
12707;SDS011;6418;50.824;4.718;2023-05-10T12:17:51;6.80;;;4.30;;
12707;SDS011;6418;50.824;4.718;2023-05-10T12:20:18;6.43;;;4.50;;
12707;SDS011;6418;50.824;4.718;2023-05-10T12:22:47;5.40;;;4.30;;
12707;SDS011;6418;50.824;4.718;2023-05-10T12:25:16;5.27;;;3.90;;
12707;SDS011;6418;50.824;4.718;2023-05-10T12:27:59;4.97;;;4.10;;
12707;SDS011;6418;50.824;4.718;2023-05-10T12:30:29;5.87;;;4.43;;
12707;SDS011;6418;50.824;4.718;2023-05-10T12:33:01;5.10;;;4.20;;
12707;SDS011;6418;50.824;4.718;2023-05-10T12:35:33;7.60;;;4.33;;
12707;SDS011;6418;50.824;4.718;2023-05-10T12:38:22;5.27;;;4.17;;
12707;SDS011;6418;50.824;4.718;2023-05-10T12:40:55;5.43;;;4.17;;
12707;SDS011;6418;50.824;4.718;2023-05-10T12:43:24;4.30;;;3.90;;
12707;SDS011;6418;50.824;4.718;2023-05-10T12:45:51;5.23;;;4.07;;
12707;SDS011;6418;50.824;4.718;2023-05-10T12:48:18;5.67;;;4.10;;
12707;SDS011;6418;50.824;4.718;2023-05-10T12:50:46;6.07;;;4.10;;
12707;SDS011;6418;50.824;4.718;2023-05-10T12:53:13;4.57;;;3.70;;
12707;SDS011;6418;50.824;4.718;2023-05-10T12:55:41;5.13;;;3.70;;
12707;SDS011;6418;50.824;4.718;2023-05-10T12:58:08;5.50;;;3.70;;
12707;SDS011;6418;50.824;4.718;2023-05-10T13:00:37;4.67;;;3.87;;
